Time;durP1;ratioP1;P1;durP2;ratioP2;P2;SDS_P1;SDS_P2;PMS_P1;PMS_P2;Temp;Humidity;BMP_temperature;BMP_pressure;BME280_temperature;BME280_humidity;BME280_pressure;Samples;Min_cycle;Max_cycle;Signal;HPM_P1;HPM_P2
2021/06/02 00:02:02;;;;;;;14.07;13.20;;;23.70;54.20;;;;;;3626836;39;20490;-60
2021/06/02 00:04:32;;;;;;;14.60;13.70;;;23.70;54.20;;;;;;3623368;39;20748;-59
2021/06/02 00:07:00;;;;;;;14.60;13.60;;;23.70;54.20;;;;;;3618159;39;20532;-58
2021/06/02 00:09:30;;;;;;;15.13;14.00;;;23.70;54.80;;;;;;3617891;39;20478;-59
2021/06/02 00:11:58;;;;;;;13.87;13.07;;;23.70;54.30;;;;;;3622643;39;20498;-60
2021/06/02 00:14:27;;;;;;;14.57;13.77;;;23.70;54.30;;;;;;3627079;39;20567;-60
2021/06/02 00:16:55;;;;;;;15.20;14.17;;;23.70;54.30;;;;;;3627246;39;20470;-59
2021/06/02 00:19:23;;;;;;;13.67;12.73;;;23.70;54.30;;;;;;3627746;39;20746;-59
2021/06/02 00:21:52;;;;;;;13.53;12.83;;;23.70;54.30;;;;;;3626707;39;20471;-59
2021/06/02 00:24:20;;;;;;;13.63;12.93;;;23.70;54.30;;;;;;3627798;39;20693;-59
2021/06/02 00:26:51;;;;;;;14.03;13.20;;;23.70;54.40;;;;;;3627931;39;20525;-59
2021/06/02 00:29:22;;;;;;;14.40;13.53;;;23.70;54.40;;;;;;3628338;39;20486;-59
2021/06/02 00:31:58;;;;;;;13.40;12.53;;;23.70;54.40;;;;;;3627174;39;20567;-59
2021/06/02 00:34:26;;;;;;;15.23;14.03;;;23.70;54.40;;;;;;3628034;39;20470;-59
2021/06/02 00:36:53;;;;;;;14.00;13.13;;;23.70;54.40;;;;;;3625577;39;20559;-59
2021/06/02 00:39:22;;;;;;;14.20;13.40;;;23.70;54.40;;;;;;3627134;39;20479;-60
2021/06/02 00:41:58;;;;;;;13.53;12.73;;;23.70;54.40;;;;;;3627192;39;20875;-60
2021/06/02 00:44:26;;;;;;;14.20;13.40;;;23.70;54.50;;;;;;3626356;39;20479;-60
2021/06/02 00:46:56;;;;;;;14.43;13.43;;;23.70;54.50;;;;;;3626476;39;20466;-59
2021/06/02 00:49:25;;;;;;;14.93;13.83;;;23.70;54.50;;;;;;3626845;39;20574;-59
2021/06/02 00:51:55;;;;;;;14.50;13.67;;;23.70;54.50;;;;;;3625764;39;20466;-60
2021/06/02 00:54:25;;;;;;;14.27;13.40;;;23.70;54.50;;;;;;3626744;39;20466;-59
2021/06/02 00:56:52;;;;;;;14.00;13.10;;;23.70;54.50;;;;;;3627916;39;20475;-60
2021/06/02 00:59:24;;;;;;;14.40;13.47;;;23.70;54.50;;;;;;3626848;39;20583;-60
2021/06/02 01:01:51;;;;;;;14.60;13.63;;;23.70;54.50;;;;;;3598278;39;1070546;-59
2021/06/02 01:04:23;;;;;;;14.27;13.47;;;23.70;54.50;;;;;;3627007;39;20225;-60
2021/06/02 01:06:52;;;;;;;14.73;13.87;;;23.60;54.40;;;;;;3627455;39;20494;-59
2021/06/02 01:09:21;;;;;;;14.47;13.40;;;23.70;54.50;;;;;;3627238;39;20478;-59
2021/06/02 01:11:48;;;;;;;13.90;13.10;;;23.70;54.50;;;;;;3627784;39;20534;-59
2021/06/02 01:14:15;;;;;;;13.53;12.67;;;23.70;54.60;;;;;;3628825;39;20481;-59
2021/06/02 01:16:43;;;;;;;13.83;13.00;;;23.70;54.60;;;;;;3628902;39;20856;-59
2021/06/02 01:19:11;;;;;;;14.87;13.87;;;23.60;54.50;;;;;;3628257;39;20560;-59
2021/06/02 01:21:51;;;;;;;14.00;13.30;;;23.70;54.60;;;;;;3628485;39;20925;-58
2021/06/02 01:24:17;;;;;;;13.90;13.10;;;23.70;54.60;;;;;;3628934;39;20583;-58
2021/06/02 01:26:46;;;;;;;13.70;13.00;;;23.70;54.60;;;;;;3627446;39;20533;-59
2021/06/02 01:29:13;;;;;;;13.97;13.07;;;23.70;54.60;;;;;;3628791;39;20497;-58
2021/06/02 01:32:37;;;;;;;13.20;12.50;;;23.70;54.60;;;;;;3628943;39;20848;-59
2021/06/02 01:35:25;;;;;;;12.53;11.87;;;23.70;54.60;;;;;;3612695;39;20490;-59
2021/06/02 01:38:29;;;;;;;15.17;14.07;;;23.70;54.60;;;;;;3622805;39;20482;-59
2021/06/02 01:41:15;;;;;;;13.67;12.97;;;23.70;54.60;;;;;;3629280;39;20866;-58
2021/06/02 01:44:23;;;;;;;14.33;13.27;;;23.70;54.60;;;;;;3619125;39;20551;-59
2021/06/02 01:47:17;;;;;;;12.87;12.17;;;23.80;54.60;;;;;;3628201;39;20725;-59
2021/06/02 01:50:16;;;;;;;13.97;13.27;;;23.80;54.60;;;;;;3608845;39;20475;-59
2021/06/02 01:53:32;;;;;;;13.13;12.43;;;23.80;54.60;;;;;;3617755;39;20478;-59
2021/06/02 01:56:33;;;;;;;12.90;12.10;;;23.80;54.60;;;;;;3577196;40;20486;-59
2021/06/02 01:59:46;;;;;;;13.87;13.07;;;23.80;54.60;;;;;;3580362;40;20646;-58
2021/06/02 02:02:53;;;;;;;13.73;12.87;;;23.80;54.60;;;;;;3575117;40;20479;-59
2021/06/02 02:05:48;;;;;;;13.70;12.83;;;23.80;54.50;;;;;;3581539;40;20836;-59
2021/06/02 02:08:27;;;;;;;14.53;13.47;;;23.80;54.60;;;;;;3576662;40;20503;-59
2021/06/02 02:10:58;;;;;;;14.50;13.67;;;23.90;54.60;;;;;;3589890;39;20483;-58
2021/06/02 02:13:59;;;;;;;13.50;12.80;;;23.90;54.60;;;;;;3619107;39;20495;-59
2021/06/02 02:16:34;;;;;;;14.47;13.57;;;23.90;54.60;;;;;;3582826;39;20532;-59
2021/06/02 02:19:24;;;;;;;14.90;14.17;;;23.90;54.60;;;;;;3626510;39;21086;-59
2021/06/02 02:21:57;;;;;;;13.97;13.27;;;23.90;54.60;;;;;;3625809;39;20563;-60
2021/06/02 02:24:44;;;;;;;14.60;13.80;;;23.90;54.50;;;;;;3628307;39;20485;-60
2021/06/02 02:27:26;;;;;;;14.67;13.87;;;23.90;54.50;;;;;;3624863;39;20839;-59
2021/06/02 02:30:01;;;;;;;14.83;13.70;;;23.90;54.50;;;;;;3622580;39;20502;-59
2021/06/02 02:32:47;;;;;;;14.20;13.30;;;24.00;54.60;;;;;;3627108;39;20474;-59
2021/06/02 02:35:45;;;;;;;14.90;14.17;;;24.00;54.60;;;;;;3627213;39;20535;-59
2021/06/02 02:38:30;;;;;;;14.10;13.40;;;24.00;54.50;;;;;;3624182;39;20490;-60
2021/06/02 02:41:09;;;;;;;14.73;13.93;;;24.00;54.50;;;;;;3628377;39;20491;-59
2021/06/02 02:43:55;;;;;;;14.77;13.97;;;24.00;54.50;;;;;;3628210;39;20474;-58
2021/06/02 02:46:31;;;;;;;13.77;13.17;;;24.10;54.50;;;;;;3628421;39;21160;-59
2021/06/02 02:49:11;;;;;;;15.00;14.20;;;24.10;54.50;;;;;;3619055;39;20502;-59
2021/06/02 02:51:52;;;;;;;15.03;13.90;;;24.10;54.50;;;;;;3625890;39;20802;-58
2021/06/02 02:54:28;;;;;;;14.33;13.53;;;24.10;54.50;;;;;;3627339;39;20474;-57
2021/06/02 02:57:03;;;;;;;15.80;14.83;;;24.10;54.50;;;;;;3627451;39;20479;-60
2021/06/02 02:59:36;;;;;;;15.00;14.10;;;24.10;54.50;;;;;;3619234;39;20479;-58
2021/06/02 03:02:15;;;;;;;14.60;13.90;;;24.10;54.50;;;;;;3617153;39;20545;-59
2021/06/02 03:04:46;;;;;;;15.57;14.67;;;24.20;54.60;;;;;;3621091;39;20489;-58
2021/06/02 03:07:15;;;;;;;14.20;13.40;;;24.20;54.50;;;;;;3622604;39;20505;-59
2021/06/02 03:09:49;;;;;;;13.77;13.07;;;24.20;54.50;;;;;;3616070;39;20468;-59
2021/06/02 03:12:25;;;;;;;14.70;13.87;;;24.20;54.50;;;;;;3607786;39;20512;-59
2021/06/02 03:14:59;;;;;;;15.60;14.70;;;24.20;54.50;;;;;;3606743;39;20488;-59
2021/06/02 03:17:39;;;;;;;15.00;14.20;;;24.20;54.40;;;;;;3606872;39;20469;-59
2021/06/02 03:20:16;;;;;;;15.90;15.00;;;24.20;54.40;;;;;;3605422;39;20480;-60
2021/06/02 03:23:08;;;;;;;15.70;14.90;;;24.20;54.40;;;;;;3610888;39;20508;-59
2021/06/02 03:25:40;;;;;;;15.57;14.77;;;24.20;54.40;;;;;;3598424;39;20501;-59
2021/06/02 03:28:25;;;;;;;15.20;14.40;;;24.20;54.40;;;;;;3614862;39;20490;-60
2021/06/02 03:31:01;;;;;;;14.87;14.17;;;24.20;54.40;;;;;;3614127;39;20491;-59
2021/06/02 03:33:50;;;;;;;13.97;13.27;;;24.30;54.50;;;;;;3606977;39;20479;-59
2021/06/02 03:36:32;;;;;;;14.67;13.97;;;24.30;54.50;;;;;;3605380;39;20476;-58
2021/06/02 03:39:07;;;;;;;14.20;13.50;;;24.30;54.40;;;;;;3610140;39;20481;-58
2021/06/02 03:41:48;;;;;;;14.90;14.10;;;24.30;54.40;;;;;;3616056;39;20486;-60
2021/06/02 03:44:30;;;;;;;14.33;13.53;;;24.40;54.50;;;;;;3616427;39;20479;-59
2021/06/02 03:47:14;;;;;;;14.07;13.37;;;24.40;54.50;;;;;;3614799;39;20471;-59
2021/06/02 03:49:56;;;;;;;15.00;14.20;;;24.40;54.40;;;;;;3608056;39;20495;-59
2021/06/02 03:52:54;;;;;;;14.30;13.60;;;24.40;54.40;;;;;;3604798;39;20472;-60
2021/06/02 03:55:28;;;;;;;15.07;14.30;;;24.40;54.40;;;;;;3601824;39;20480;-60
2021/06/02 03:57:59;;;;;;;15.80;14.90;;;24.40;54.40;;;;;;3604096;39;21092;-60
2021/06/02 04:00:36;;;;;;;14.63;13.87;;;24.40;54.40;;;;;;3612365;39;20472;-60
2021/06/02 04:03:17;;;;;;;14.50;13.80;;;24.50;54.50;;;;;;3614088;39;20474;-60
2021/06/02 04:06:08;;;;;;;16.00;15.03;;;24.50;54.40;;;;;;3615626;39;20467;-60
2021/06/02 04:08:45;;;;;;;15.13;14.33;;;24.50;54.30;;;;;;3613268;39;20499;-59
2021/06/02 04:11:18;;;;;;;14.80;14.00;;;24.60;54.40;;;;;;3616091;39;20471;-60
2021/06/02 04:14:05;;;;;;;14.63;13.93;;;24.60;54.40;;;;;;3615077;39;20475;-60
2021/06/02 04:16:34;;;;;;;15.43;14.63;;;24.60;54.30;;;;;;3614611;39;20475;-59
2021/06/02 04:19:04;;;;;;;14.60;13.97;;;24.60;54.30;;;;;;3614755;39;20567;-59
2021/06/02 04:21:35;;;;;;;14.47;13.83;;;24.60;54.30;;;;;;3614602;39;20475;-60
2021/06/02 04:24:05;;;;;;;14.63;13.83;;;24.60;54.20;;;;;;3613407;39;20485;-59
2021/06/02 04:26:33;;;;;;;15.70;15.00;;;24.60;54.20;;;;;;3613698;39;20512;-60
2021/06/02 04:29:03;;;;;;;15.10;14.30;;;24.70;54.20;;;;;;3614092;39;20478;-60
2021/06/02 04:31:30;;;;;;;14.70;14.00;;;24.70;54.20;;;;;;3623397;39;20579;-60
2021/06/02 04:34:00;;;;;;;14.50;13.90;;;24.70;54.20;;;;;;3622418;39;20478;-60
2021/06/02 04:36:27;;;;;;;14.77;13.97;;;24.80;54.30;;;;;;3621146;39;20521;-59
2021/06/02 04:38:57;;;;;;;15.57;14.77;;;24.80;54.20;;;;;;3620469;39;20486;-59
2021/06/02 04:41:27;;;;;;;15.33;14.60;;;24.80;54.20;;;;;;3623348;39;20486;-58
2021/06/02 04:43:56;;;;;;;15.23;14.53;;;24.80;54.10;;;;;;3624128;39;20478;-59
2021/06/02 04:46:22;;;;;;;14.57;13.87;;;24.80;54.10;;;;;;3624444;39;21324;-59
2021/06/02 04:48:52;;;;;;;15.27;14.47;;;24.90;54.20;;;;;;3620792;39;20479;-58
2021/06/02 04:52:01;;;;;;;15.13;14.40;;;24.90;54.20;;;;;;3614434;39;20863;-60
2021/06/02 04:55:00;;;;;;;14.90;14.20;;;24.90;54.20;;;;;;3613956;39;20570;-58
2021/06/02 04:58:00;;;;;;;15.33;14.47;;;24.90;54.20;;;;;;3612586;39;20485;-59
2021/06/02 05:01:18;;;;;;;14.13;13.50;;;25.00;54.20;;;;;;3612405;39;21129;-59
2021/06/02 05:04:22;;;;;;;15.37;14.67;;;25.00;54.10;;;;;;3611737;39;20811;-60
2021/06/02 05:07:29;;;;;;;15.83;15.03;;;25.00;54.10;;;;;;3611743;39;20482;-58
2021/06/02 05:10:36;;;;;;;15.43;14.73;;;25.00;54.10;;;;;;3620605;39;20505;-59
2021/06/02 05:14:00;;;;;;;16.17;15.20;;;25.00;54.10;;;;;;3579728;40;20497;-58
2021/06/02 05:17:04;;;;;;;15.00;14.30;;;25.00;54.10;;;;;;3611397;39;20490;-59
2021/06/02 05:20:17;;;;;;;15.87;14.87;;;25.00;54.20;;;;;;3610624;39;20567;-59
2021/06/02 05:23:14;;;;;;;14.47;13.83;;;25.00;54.20;;;;;;3609581;39;20478;-59
2021/06/02 05:26:11;;;;;;;15.70;14.90;;;25.00;54.20;;;;;;3555766;40;20484;-59
2021/06/02 05:29:19;;;;;;;15.17;14.47;;;25.00;54.30;;;;;;3564581;40;20482;-59
2021/06/02 05:35:17;;;;;;;15.07;14.37;;;25.00;54.30;;;;;;3594997;39;20468;-60
2021/06/02 05:38:10;;;;;;;15.60;14.80;;;25.00;54.30;;;;;;3595295;39;20484;-60
2021/06/02 05:41:00;;;;;;;15.27;14.47;;;25.00;54.30;;;;;;3595142;39;20856;-59
2021/06/02 05:44:15;;;;;;;15.43;14.67;;;24.90;54.30;;;;;;3594999;39;20810;-58
2021/06/02 05:47:25;;;;;;;16.00;15.10;;;24.90;54.30;;;;;;3595182;39;20797;-59
2021/06/02 05:50:38;;;;;;;15.03;14.33;;;24.90;54.30;;;;;;3584841;40;20481;-60
2021/06/02 05:53:47;;;;;;;15.87;15.07;;;24.90;54.30;;;;;;3582253;39;20492;-60
2021/06/02 05:57:02;;;;;;;15.50;14.70;;;24.90;54.40;;;;;;3588637;39;20915;-60
2021/06/02 05:59:57;;;;;;;14.47;13.77;;;24.90;54.70;;;;;;3581433;39;20484;-60
2021/06/02 06:03:08;;;;;;;14.87;13.97;;;24.90;54.50;;;;;;3580552;40;20489;-60
2021/06/02 06:06:03;;;;;;;15.70;14.80;;;24.80;54.50;;;;;;3580088;40;20493;-60
2021/06/02 06:09:05;;;;;;;15.57;14.63;;;24.80;54.50;;;;;;3585660;39;20482;-59
2021/06/02 06:12:23;;;;;;;16.30;15.17;;;24.80;54.80;;;;;;3589579;39;20606;-59
2021/06/02 06:15:26;;;;;;;16.20;15.20;;;24.80;54.50;;;;;;3543838;40;20851;-59
2021/06/02 06:18:16;;;;;;;16.60;15.40;;;24.80;53.90;;;;;;3541683;40;20484;-60
2021/06/02 06:21:25;;;;;;;17.70;16.00;;;24.70;54.20;;;;;;3582948;39;20477;-60
2021/06/02 06:23:56;;;;;;;16.80;15.77;;;24.60;54.20;;;;;;3575665;39;20554;-59
2021/06/02 06:26:29;;;;;;;16.67;15.53;;;24.50;54.50;;;;;;3587106;39;20503;-60
2021/06/02 06:29:15;;;;;;;17.63;15.67;;;24.50;53.90;;;;;;3579708;39;21315;-60
2021/06/02 06:31:45;;;;;;;16.77;15.43;;;24.40;54.30;;;;;;3577427;39;21320;-59
2021/06/02 06:34:16;;;;;;;16.07;14.87;;;24.40;54.90;;;;;;3585768;39;21241;-59
2021/06/02 06:36:45;;;;;;;16.30;15.30;;;24.40;55.10;;;;;;3587109;39;21241;-59
2021/06/02 06:39:23;;;;;;;14.87;14.10;;;24.40;54.40;;;;;;3587544;39;20732;-59
2021/06/02 06:41:52;;;;;;;15.17;14.27;;;24.40;55.00;;;;;;3586167;39;20484;-60
2021/06/02 06:44:20;;;;;;;15.23;14.43;;;24.40;55.10;;;;;;3581217;39;20485;-60
2021/06/02 06:46:53;;;;;;;14.87;13.90;;;24.40;55.10;;;;;;3585935;39;20726;-60
2021/06/02 06:49:22;;;;;;;14.70;14.00;;;24.40;55.90;;;;;;3590258;39;20487;-59
2021/06/02 06:51:53;;;;;;;15.83;14.70;;;24.40;55.40;;;;;;3589417;39;20500;-60
2021/06/02 06:54:22;;;;;;;14.50;13.70;;;24.40;55.50;;;;;;3580000;39;20548;-59
2021/06/02 06:56:50;;;;;;;14.33;13.43;;;24.40;55.70;;;;;;3582516;39;20501;-59
2021/06/02 06:59:17;;;;;;;14.63;13.70;;;24.40;55.70;;;;;;3574371;39;21179;-60
2021/06/02 07:01:46;;;;;;;15.17;13.97;;;24.40;55.80;;;;;;3593250;39;20475;-60
2021/06/02 07:04:14;;;;;;;15.93;15.07;;;24.40;55.90;;;;;;3602009;39;20572;-61
2021/06/02 07:06:43;;;;;;;14.63;13.77;;;24.40;55.90;;;;;;3594361;39;20468;-61
2021/06/02 07:09:11;;;;;;;14.33;13.63;;;24.50;56.00;;;;;;3581045;39;20479;-61
2021/06/02 07:11:41;;;;;;;14.00;13.20;;;24.50;55.90;;;;;;3597870;39;20492;-61
2021/06/02 07:14:10;;;;;;;13.50;12.70;;;24.50;55.90;;;;;;3602392;39;20505;-61
2021/06/02 07:16:40;;;;;;;13.80;13.00;;;24.50;56.00;;;;;;3597041;39;20490;-61
2021/06/02 07:19:10;;;;;;;13.60;12.90;;;24.50;55.90;;;;;;3603240;39;20486;-60
2021/06/02 07:21:46;;;;;;;13.60;12.60;;;24.50;55.90;;;;;;3608149;39;20489;-60
2021/06/02 07:24:18;;;;;;;13.93;12.97;;;24.50;55.90;;;;;;3605106;39;20470;-58
2021/06/02 07:26:47;;;;;;;12.90;12.20;;;24.60;56.10;;;;;;3594722;39;20560;-51
2021/06/02 07:29:15;;;;;;;12.87;12.17;;;24.60;56.70;;;;;;3597420;39;20484;-53
2021/06/02 07:31:42;;;;;;;12.63;12.03;;;24.60;56.10;;;;;;3596380;39;20876;-54
2021/06/02 07:34:08;;;;;;;13.43;12.63;;;24.60;56.00;;;;;;3593803;39;20484;-50
2021/06/02 07:36:40;;;;;;;12.97;12.27;;;24.60;56.00;;;;;;3593584;39;21065;-54
2021/06/02 07:39:07;;;;;;;13.23;12.53;;;24.60;55.90;;;;;;3595001;39;20475;-52
2021/06/02 07:41:35;;;;;;;13.10;12.30;;;24.60;55.80;;;;;;3596721;39;20533;-50
2021/06/02 07:44:03;;;;;;;12.73;12.13;;;24.60;55.70;;;;;;3594643;39;21210;-49
2021/06/02 07:46:33;;;;;;;13.40;12.50;;;24.60;55.60;;;;;;3591228;39;20494;-49
2021/06/02 07:49:01;;;;;;;12.50;11.80;;;24.60;55.50;;;;;;3593214;39;20515;-49
2021/06/02 07:51:31;;;;;;;12.70;12.00;;;24.60;55.40;;;;;;3593632;39;20569;-50
2021/06/02 07:53:59;;;;;;;13.10;12.10;;;24.60;55.40;;;;;;3594674;39;20495;-49
2021/06/02 07:56:25;;;;;;;13.50;12.90;;;24.60;55.40;;;;;;3595485;39;21314;-49
2021/06/02 07:58:54;;;;;;;13.53;12.73;;;24.60;55.40;;;;;;3586514;39;20572;-52
2021/06/02 08:01:21;;;;;;;13.33;12.73;;;24.60;55.40;;;;;;3587413;39;20479;-51
2021/06/02 08:03:55;;;;;;;13.30;12.60;;;24.50;55.30;;;;;;3593875;39;20491;-51
2021/06/02 08:06:22;;;;;;;13.17;12.57;;;24.50;55.30;;;;;;3595117;39;20908;-50
2021/06/02 08:08:51;;;;;;;13.97;12.90;;;24.50;55.40;;;;;;3602293;39;20482;-51
2021/06/02 08:11:17;;;;;;;13.27;12.67;;;24.50;55.30;;;;;;3606492;39;20482;-51
2021/06/02 08:13:46;;;;;;;14.97;13.97;;;24.50;55.30;;;;;;3598157;39;21276;-52
2021/06/02 08:16:14;;;;;;;13.80;13.00;;;24.50;55.20;;;;;;3603535;39;20488;-52
2021/06/02 08:18:42;;;;;;;12.80;12.20;;;24.50;55.20;;;;;;3602409;39;20714;-50
2021/06/02 08:21:08;;;;;;;13.00;12.40;;;24.50;55.80;;;;;;3607015;39;20796;-50
2021/06/02 08:23:38;;;;;;;13.20;12.60;;;24.50;55.20;;;;;;3605894;39;20478;-49
2021/06/02 08:26:05;;;;;;;14.10;13.40;;;24.50;55.30;;;;;;3606655;39;20478;-50
2021/06/02 08:28:32;;;;;;;13.47;12.80;;;24.50;55.40;;;;;;3596232;39;20582;-53
2021/06/02 08:30:59;;;;;;;14.10;13.20;;;24.50;55.50;;;;;;3603472;39;20511;-52
2021/06/02 08:33:28;;;;;;;14.00;13.20;;;24.50;55.40;;;;;;3602180;39;20566;-51
2021/06/02 08:35:57;;;;;;;13.30;12.70;;;24.50;55.40;;;;;;3605579;39;20470;-51
2021/06/02 08:38:25;;;;;;;12.97;12.37;;;24.50;55.40;;;;;;3605985;39;20545;-51
2021/06/02 08:40:51;;;;;;;13.80;13.20;;;24.50;55.40;;;;;;3606702;39;21362;-53
2021/06/02 08:43:20;;;;;;;13.73;13.13;;;24.50;55.50;;;;;;3607118;39;20575;-52
2021/06/02 08:45:48;;;;;;;14.27;13.57;;;24.50;55.50;;;;;;3602379;39;21319;-52
2021/06/02 08:48:16;;;;;;;14.80;13.53;;;24.50;55.50;;;;;;3600035;39;20499;-54
2021/06/02 08:50:45;;;;;;;13.50;12.90;;;24.50;55.60;;;;;;3601066;39;20489;-53
2021/06/02 08:53:16;;;;;;;14.10;12.90;;;24.50;55.60;;;;;;3608230;39;21141;-54
2021/06/02 08:55:45;;;;;;;13.73;12.93;;;24.50;55.60;;;;;;3596366;39;20935;-52
2021/06/02 08:58:17;;;;;;;13.37;12.70;;;24.50;55.50;;;;;;3593559;39;20499;-53
2021/06/02 09:00:47;;;;;;;13.37;12.77;;;24.50;55.50;;;;;;3594952;39;20835;-50
2021/06/02 09:03:16;;;;;;;14.27;13.57;;;24.50;55.40;;;;;;3593429;39;20627;-54
2021/06/02 09:05:44;;;;;;;13.57;12.57;;;24.50;55.40;;;;;;3593846;39;20471;-53
2021/06/02 09:08:15;;;;;;;13.47;12.77;;;24.50;55.40;;;;;;3595001;39;21269;-53
2021/06/02 09:10:45;;;;;;;13.50;12.90;;;24.50;55.40;;;;;;3592516;39;20479;-51
2021/06/02 09:13:18;;;;;;;13.80;13.10;;;24.50;55.40;;;;;;3598822;39;20471;-54
2021/06/02 09:15:52;;;;;;;13.80;13.20;;;24.50;55.30;;;;;;3596511;39;20361;-53
2021/06/02 09:18:20;;;;;;;14.37;13.67;;;24.50;55.20;;;;;;3594445;39;20741;-54
2021/06/02 09:20:49;;;;;;;13.93;13.33;;;24.50;55.20;;;;;;3593805;39;20907;-51
2021/06/02 09:23:35;;;;;;;13.73;13.20;;;24.50;55.10;;;;;;3596063;39;20889;-52
2021/06/02 09:26:21;;;;;;;13.93;13.30;;;24.50;55.10;;;;;;3591868;39;20499;-51
2021/06/02 09:28:58;;;;;;;13.37;12.80;;;24.50;55.10;;;;;;3592889;39;20571;-53
2021/06/02 09:31:32;;;;;;;12.93;12.20;;;24.50;55.00;;;;;;3593733;39;20503;-52
2021/06/02 09:34:13;;;;;;;13.47;12.67;;;24.50;54.90;;;;;;3592161;39;20544;-50
2021/06/02 09:36:44;;;;;;;12.90;12.40;;;24.50;54.90;;;;;;3584218;39;21286;-51
2021/06/02 09:39:14;;;;;;;13.50;12.90;;;24.50;54.80;;;;;;3595497;39;20486;-52
2021/06/02 09:41:42;;;;;;;13.07;12.27;;;24.50;54.80;;;;;;3589373;39;20571;-54
2021/06/02 09:44:19;;;;;;;13.33;12.73;;;24.50;54.70;;;;;;3584665;39;20778;-51
2021/06/02 09:47:07;;;;;;;13.33;12.60;;;24.50;54.60;;;;;;3592798;39;20502;-54
2021/06/02 09:49:47;;;;;;;14.03;13.10;;;24.40;54.40;;;;;;3591831;39;20488;-54
2021/06/02 09:52:39;;;;;;;12.90;12.37;;;24.40;54.20;;;;;;3585645;39;20499;-53
2021/06/02 09:55:21;;;;;;;12.70;12.17;;;24.40;54.20;;;;;;3591711;39;20496;-50
2021/06/02 09:57:53;;;;;;;12.30;11.80;;;24.40;54.10;;;;;;3594909;39;20494;-49
2021/06/02 10:00:21;;;;;;;12.70;12.20;;;24.40;54.00;;;;;;3593229;39;20509;-51
2021/06/02 10:02:59;;;;;;;12.83;12.17;;;24.40;53.80;;;;;;3587091;39;20499;-51
2021/06/02 10:05:35;;;;;;;11.93;11.40;;;24.40;53.70;;;;;;3587970;39;20510;-48
2021/06/02 10:08:11;;;;;;;12.17;11.53;;;24.40;53.60;;;;;;3593706;39;20494;-51
2021/06/02 10:10:39;;;;;;;12.17;11.67;;;24.40;53.50;;;;;;3587903;39;20584;-49
2021/06/02 10:13:09;;;;;;;11.30;10.90;;;24.40;53.30;;;;;;3595303;39;20972;-49
2021/06/02 10:15:38;;;;;;;11.83;11.43;;;24.40;53.10;;;;;;3596660;39;20468;-50
2021/06/02 10:18:25;;;;;;;12.30;11.80;;;24.40;53.00;;;;;;3595183;39;20495;-53
2021/06/02 10:21:00;;;;;;;11.53;11.03;;;24.40;52.80;;;;;;3586828;39;20484;-52
2021/06/02 10:23:30;;;;;;;12.50;11.90;;;24.40;52.70;;;;;;3595377;39;20865;-51
2021/06/02 10:26:02;;;;;;;11.80;11.30;;;24.40;52.70;;;;;;3602395;39;20510;-49
2021/06/02 10:28:33;;;;;;;11.60;11.20;;;24.40;52.60;;;;;;3604939;39;20486;-50
2021/06/02 10:31:03;;;;;;;12.63;12.03;;;24.40;52.40;;;;;;3598733;39;21018;-50
2021/06/02 10:33:31;;;;;;;11.50;11.00;;;24.40;52.30;;;;;;3605164;39;20490;-50
2021/06/02 10:36:02;;;;;;;11.43;10.93;;;24.40;52.10;;;;;;3595486;39;20474;-49
2021/06/02 10:38:39;;;;;;;11.50;11.03;;;24.40;52.10;;;;;;3596465;39;20487;-50
2021/06/02 10:41:07;;;;;;;12.53;11.93;;;24.40;52.00;;;;;;3598003;39;20588;-51
2021/06/02 10:43:42;;;;;;;12.67;12.17;;;24.40;52.00;;;;;;3600894;39;20470;-50
2021/06/02 10:46:17;;;;;;;12.50;11.80;;;24.30;51.90;;;;;;3605511;39;20508;-53
2021/06/02 10:48:47;;;;;;;12.10;11.57;;;24.40;52.10;;;;;;3606434;39;20481;-51
2021/06/02 10:51:42;;;;;;;12.87;11.73;;;24.30;52.00;;;;;;3603627;39;20514;-51
2021/06/02 10:54:16;;;;;;;12.07;11.57;;;24.30;52.00;;;;;;3601203;39;20493;-50
2021/06/02 10:57:08;;;;;;;11.67;11.20;;;24.30;52.10;;;;;;3605784;39;20490;-54
2021/06/02 10:59:39;;;;;;;12.00;11.50;;;24.30;52.10;;;;;;3607903;39;20621;-52
2021/06/02 11:02:08;;;;;;;12.30;11.80;;;24.30;52.10;;;;;;3604846;39;20480;-50
2021/06/02 11:04:37;;;;;;;12.70;12.10;;;24.30;52.10;;;;;;3606333;39;20486;-51
2021/06/02 11:07:18;;;;;;;12.23;11.73;;;24.30;52.00;;;;;;3607902;39;20682;-50
2021/06/02 11:09:55;;;;;;;12.83;11.70;;;24.30;52.00;;;;;;3604292;39;20951;-51
2021/06/02 11:12:23;;;;;;;11.33;10.93;;;24.30;51.90;;;;;;3601432;39;20534;-53
2021/06/02 11:14:53;;;;;;;12.40;11.83;;;24.30;51.80;;;;;;3603353;39;20486;-53
2021/06/02 11:17:26;;;;;;;11.20;10.80;;;24.30;51.70;;;;;;3608525;39;20487;-52
2021/06/02 11:19:56;;;;;;;11.53;11.13;;;24.30;51.50;;;;;;3601810;39;20471;-50
2021/06/02 11:22:25;;;;;;;11.73;11.13;;;24.30;51.50;;;;;;3604303;39;20623;-50
2021/06/02 11:24:57;;;;;;;12.30;11.60;;;24.30;51.50;;;;;;3605389;39;20478;-52
2021/06/02 11:27:37;;;;;;;12.07;11.53;;;24.30;51.40;;;;;;3606630;39;20490;-51
2021/06/02 11:30:22;;;;;;;11.40;11.00;;;24.30;51.40;;;;;;3607743;39;20522;-50
2021/06/02 11:33:10;;;;;;;11.27;10.77;;;24.30;51.30;;;;;;3601953;39;20478;-49
2021/06/02 11:35:57;;;;;;;11.87;11.37;;;24.30;51.20;;;;;;3606812;39;20470;-53
2021/06/02 11:38:24;;;;;;;11.43;10.90;;;24.30;51.20;;;;;;3607874;39;20458;-50
2021/06/02 11:40:53;;;;;;;11.93;11.37;;;24.30;51.20;;;;;;3606786;39;20484;-50
2021/06/02 11:43:20;;;;;;;11.83;11.37;;;24.30;51.20;;;;;;3593260;39;20765;-50
2021/06/02 11:45:50;;;;;;;11.97;11.43;;;24.30;51.20;;;;;;3592574;39;20479;-50
2021/06/02 11:48:30;;;;;;;11.47;10.97;;;24.30;51.20;;;;;;3601936;39;20479;-52
2021/06/02 11:51:00;;;;;;;10.90;10.40;;;24.30;51.20;;;;;;3601879;39;20464;-53
2021/06/02 11:53:41;;;;;;;11.70;11.10;;;24.30;51.20;;;;;;3593985;39;20486;-49
2021/06/02 11:56:08;;;;;;;11.93;11.33;;;24.30;51.00;;;;;;3596396;39;20472;-52
2021/06/02 11:58:35;;;;;;;11.30;10.60;;;24.30;50.90;;;;;;3585175;39;20522;-51
2021/06/02 12:01:04;;;;;;;11.10;10.40;;;24.30;50.80;;;;;;3600343;39;20545;-51
2021/06/02 12:03:31;;;;;;;11.50;11.10;;;24.30;50.70;;;;;;3604634;39;20489;-52
2021/06/02 12:05:58;;;;;;;11.80;11.30;;;24.30;50.50;;;;;;3606099;39;20498;-50
2021/06/02 12:08:26;;;;;;;11.27;10.87;;;24.30;50.40;;;;;;3607146;39;21373;-51
2021/06/02 12:10:55;;;;;;;11.20;10.60;;;24.30;50.30;;;;;;3606122;39;20470;-51
2021/06/02 12:13:23;;;;;;;10.80;10.40;;;24.30;50.20;;;;;;3603712;39;21090;-52
2021/06/02 12:15:53;;;;;;;10.63;10.30;;;24.20;50.00;;;;;;3603301;39;20493;-50
2021/06/02 12:18:35;;;;;;;10.33;10.03;;;24.20;49.90;;;;;;3607096;39;20514;-53
2021/06/02 12:21:07;;;;;;;10.43;10.03;;;24.20;49.90;;;;;;3606768;39;20498;-53
2021/06/02 12:23:35;;;;;;;11.10;10.40;;;24.20;49.80;;;;;;3604253;39;20526;-60
2021/06/02 12:26:20;;;;;;;10.93;10.53;;;24.20;49.70;;;;;;3608121;39;20572;-60
2021/06/02 12:28:48;;;;;;;10.40;10.00;;;24.20;49.70;;;;;;3606377;39;20482;-60
2021/06/02 12:31:34;;;;;;;11.40;10.70;;;24.20;49.60;;;;;;3611012;39;20943;-62
2021/06/02 12:34:06;;;;;;;10.63;10.23;;;24.20;49.60;;;;;;3596018;39;20960;-62
2021/06/02 12:36:33;;;;;;;11.10;10.53;;;24.20;49.60;;;;;;3593920;39;20521;-59
2021/06/02 12:39:07;;;;;;;11.40;11.00;;;24.20;49.60;;;;;;3594008;39;20912;-59
2021/06/02 12:41:34;;;;;;;11.73;11.13;;;24.20;49.70;;;;;;3599987;39;20486;-59
2021/06/02 12:44:03;;;;;;;11.33;10.93;;;24.20;49.60;;;;;;3606862;39;20970;-58
2021/06/02 12:46:31;;;;;;;11.63;11.23;;;24.20;49.70;;;;;;3605495;39;20502;-59
2021/06/02 12:48:58;;;;;;;11.10;10.70;;;24.20;49.80;;;;;;3607548;39;20529;-59
2021/06/02 12:51:27;;;;;;;11.00;10.50;;;24.20;49.90;;;;;;3608920;39;20225;-60
2021/06/02 12:53:54;;;;;;;11.83;11.27;;;24.20;49.90;;;;;;3608224;39;20482;-59
2021/06/02 12:56:22;;;;;;;10.93;10.53;;;24.20;49.80;;;;;;3605848;39;20482;-60
2021/06/02 12:58:52;;;;;;;11.43;11.03;;;24.20;49.70;;;;;;3602470;39;20475;-59
2021/06/02 13:01:21;;;;;;;12.83;12.33;;;24.20;49.70;;;;;;3598998;39;20496;-60
2021/06/02 13:03:50;;;;;;;12.73;12.23;;;24.20;49.70;;;;;;3602683;39;20511;-60
2021/06/02 13:06:18;;;;;;;12.13;11.73;;;24.20;50.20;;;;;;3605744;39;20485;-59
2021/06/02 13:08:47;;;;;;;12.50;11.90;;;24.20;49.60;;;;;;3603116;39;20520;-61
2021/06/02 13:11:18;;;;;;;13.00;12.43;;;24.20;49.50;;;;;;3607874;39;20478;-59
2021/06/02 13:13:49;;;;;;;11.93;11.43;;;24.20;49.40;;;;;;3610566;39;20529;-60
2021/06/02 13:16:21;;;;;;;12.27;11.47;;;24.20;49.30;;;;;;3602160;39;20478;-58
2021/06/02 13:18:56;;;;;;;13.07;12.27;;;24.20;49.40;;;;;;3610252;39;21283;-60